Time;durP1;ratioP1;P1;durP2;ratioP2;P2;SDS_P1;SDS_P2;PMS_P1;PMS_P2;Temp;Humidity;BMP_temperature;BMP_pressure;BME280_temperature;BME280_humidity;BME280_pressure;Samples;Min_cycle;Max_cycle;Signal;HPM_P1;HPM_P2
2023/04/02 00:02:19;;;;;;;7.37;3.70;;;3.80;99.90;;;;;;5047724;28;20040;-41
2023/04/02 00:05:14;;;;;;;11.38;4.07;;;3.80;99.90;;;;;;5042910;28;20641;-41
2023/04/02 00:07:43;;;;;;;11.30;4.10;;;3.80;99.90;;;;;;5048696;28;20009;-41
2023/04/02 00:10:45;;;;;;;8.20;3.22;;;3.80;99.90;;;;;;5048456;28;20021;-41
2023/04/02 00:13:10;;;;;;;6.28;3.55;;;3.80;99.90;;;;;;5047616;28;20028;-41
2023/04/02 00:15:45;;;;;;;10.65;3.20;;;3.80;99.90;;;;;;5048900;28;20072;-41
2023/04/02 00:18:17;;;;;;;7.80;4.15;;;3.80;99.90;;;;;;5048415;28;20021;-40
2023/04/02 00:20:47;;;;;;;12.75;3.63;;;3.70;99.90;;;;;;5047666;28;20028;-41
2023/04/02 00:23:14;;;;;;;7.97;3.58;;;3.70;99.90;;;;;;5047360;28;20029;-41
2023/04/02 00:25:44;;;;;;;10.52;2.95;;;3.70;99.90;;;;;;5048547;28;20017;-41
2023/04/02 00:28:20;;;;;;;8.35;3.42;;;3.60;99.90;;;;;;5047072;28;20483;-41
2023/04/02 00:30:49;;;;;;;8.73;3.65;;;3.60;99.90;;;;;;5049258;28;20480;-41
2023/04/02 00:33:17;;;;;;;9.95;4.30;;;3.70;99.90;;;;;;5047680;28;20028;-41
2023/04/02 00:35:43;;;;;;;12.50;3.97;;;3.60;99.90;;;;;;5046945;28;20528;-41
2023/04/02 00:38:20;;;;;;;10.13;3.30;;;3.50;99.90;;;;;;5048336;28;20033;-41
2023/04/02 00:40:45;;;;;;;5.78;3.22;;;3.50;99.90;;;;;;5047153;28;20017;-41
2023/04/02 00:43:15;;;;;;;8.05;3.00;;;3.50;99.90;;;;;;5048395;28;20021;-40
2023/04/02 00:45:49;;;;;;;4.73;2.70;;;3.50;99.90;;;;;;5048264;28;20013;-41
2023/04/02 00:48:31;;;;;;;6.82;2.58;;;3.50;99.90;;;;;;5048046;28;20020;-41
2023/04/02 00:51:13;;;;;;;6.85;2.70;;;3.50;99.90;;;;;;5043648;28;20025;-41
2023/04/02 00:53:39;;;;;;;8.68;2.90;;;3.50;99.90;;;;;;5048406;28;20111;-41
2023/04/02 00:56:15;;;;;;;6.78;2.72;;;3.50;99.90;;;;;;5047446;28;20071;-41
2023/04/02 00:58:42;;;;;;;6.47;2.72;;;3.50;99.90;;;;;;5047894;28;20489;-41
2023/04/02 01:01:17;;;;;;;9.68;2.83;;;3.50;99.90;;;;;;5048324;28;20537;-40
2023/04/02 01:04:00;;;;;;;9.07;2.88;;;3.40;99.90;;;;;;5048139;28;20021;-40
2023/04/02 01:06:33;;;;;;;10.07;2.88;;;3.40;99.90;;;;;;5048288;28;20045;-40
2023/04/02 01:09:08;;;;;;;6.95;2.88;;;3.30;99.90;;;;;;5047962;28;20478;-40
2023/04/02 01:11:54;;;;;;;7.55;2.25;;;3.40;99.90;;;;;;5048353;28;20029;-40
2023/04/02 01:15:02;;;;;;;5.55;2.47;;;3.40;99.90;;;;;;5046754;28;20461;-40
2023/04/02 01:17:41;;;;;;;7.65;3.88;;;3.30;99.90;;;;;;5041933;28;20402;-41
2023/04/02 01:20:16;;;;;;;4.72;2.58;;;3.40;99.90;;;;;;5044505;28;20021;-40
2023/04/02 01:23:01;;;;;;;5.15;2.15;;;3.30;99.90;;;;;;5048195;28;20021;-40
2023/04/02 01:25:40;;;;;;;9.10;2.83;;;3.40;99.90;;;;;;5047788;28;20025;-41
2023/04/02 01:28:19;;;;;;;3.83;2.17;;;3.40;99.90;;;;;;5047989;28;20056;-41
2023/04/02 01:30:53;;;;;;;4.88;2.10;;;3.40;99.90;;;;;;5048012;28;20040;-41
2023/04/02 01:33:28;;;;;;;8.20;2.50;;;3.40;99.90;;;;;;5048164;28;20053;-41
2023/04/02 01:36:08;;;;;;;8.07;2.67;;;3.40;99.90;;;;;;5047327;28;20511;-41
2023/04/02 01:38:42;;;;;;;14.93;2.78;;;3.40;99.90;;;;;;5040153;28;20477;-41
2023/04/02 01:41:16;;;;;;;8.43;2.47;;;3.40;99.90;;;;;;5046414;28;20390;-41
2023/04/02 01:43:42;;;;;;;8.05;2.22;;;3.40;99.90;;;;;;5046584;28;20032;-41
2023/04/02 01:46:31;;;;;;;3.30;1.70;;;3.40;99.90;;;;;;5051305;28;20468;-41
2023/04/02 01:49:01;;;;;;;6.90;1.90;;;3.40;99.90;;;;;;5051026;28;20103;-41
2023/04/02 01:51:40;;;;;;;5.40;2.23;;;3.40;99.90;;;;;;5066879;28;20032;-40
2023/04/02 01:54:07;;;;;;;3.60;2.08;;;3.40;99.90;;;;;;5051776;28;20028;-40
2023/04/02 01:56:34;;;;;;;4.97;1.75;;;3.40;99.90;;;;;;5043583;28;20075;-40
2023/04/02 01:59:01;;;;;;;10.80;2.63;;;3.40;99.90;;;;;;5051229;28;20047;-40
2023/04/02 02:01:35;;;;;;;5.13;2.00;;;3.40;99.90;;;;;;5066867;28;20025;-41
2023/04/02 02:04:01;;;;;;;7.82;2.88;;;3.40;99.90;;;;;;5051237;28;20120;-41
2023/04/02 02:06:27;;;;;;;7.47;1.70;;;3.30;99.90;;;;;;5050135;28;20043;-41
2023/04/02 02:09:06;;;;;;;9.38;2.42;;;3.30;99.90;;;;;;5050853;28;20029;-41
2023/04/02 02:11:34;;;;;;;4.28;1.80;;;3.30;99.90;;;;;;5050558;28;20579;-41
2023/04/02 02:14:21;;;;;;;9.13;2.80;;;3.30;99.90;;;;;;5050888;28;20017;-41
2023/04/02 02:16:47;;;;;;;5.05;1.90;;;3.30;99.90;;;;;;5050173;28;20502;-41
2023/04/02 02:19:37;;;;;;;5.57;1.80;;;3.40;99.90;;;;;;5050515;28;20340;-41
2023/04/02 02:22:03;;;;;;;4.15;1.90;;;3.40;99.90;;;;;;5043063;28;20098;-41
2023/04/02 02:24:31;;;;;;;5.82;2.13;;;3.40;99.90;;;;;;5050579;28;20425;-41
2023/04/02 02:27:21;;;;;;;5.63;1.85;;;3.40;99.90;;;;;;5049955;28;20021;-42
2023/04/02 02:29:53;;;;;;;6.32;1.70;;;3.40;99.90;;;;;;5049411;28;20013;-41
2023/04/02 02:32:22;;;;;;;4.50;1.88;;;3.40;99.90;;;;;;5050439;28;20025;-40
2023/04/02 02:34:57;;;;;;;9.20;1.92;;;3.50;99.90;;;;;;5050637;28;20448;-40
2023/04/02 02:37:28;;;;;;;8.23;1.98;;;3.40;99.90;;;;;;5049263;28;20024;-41
2023/04/02 02:39:58;;;;;;;;;;;3.40;99.90;;;;;;5051387;28;20522;-40
2023/04/02 02:42:29;;;;;;;4.53;1.80;;;3.40;99.90;;;;;;5050224;28;19911;-40
2023/04/02 02:44:56;;;;;;;3.05;1.95;;;3.40;99.90;;;;;;5050397;28;20083;-39
2023/04/02 02:47:32;;;;;;;7.03;1.90;;;3.40;99.90;;;;;;5049917;28;20120;-40
2023/04/02 02:50:01;;;;;;;5.88;1.90;;;3.40;99.90;;;;;;5050049;28;20336;-40
2023/04/02 02:52:31;;;;;;;4.15;2.60;;;3.40;99.90;;;;;;5050431;28;20033;-41
2023/04/02 02:55:00;;;;;;;4.57;2.35;;;3.50;99.90;;;;;;5049601;28;20509;-41
2023/04/02 02:57:29;;;;;;;4.72;2.08;;;3.40;99.90;;;;;;5049773;28;20071;-40
2023/04/02 02:59:58;;;;;;;5.15;2.10;;;3.50;99.90;;;;;;5050452;28;20513;-41
2023/04/02 03:02:26;;;;;;;10.73;2.00;;;3.50;99.90;;;;;;5050206;28;20116;-41
2023/04/02 03:04:54;;;;;;;4.25;1.77;;;3.50;99.90;;;;;;5049309;28;20078;-41
2023/04/02 03:07:24;;;;;;;4.38;1.95;;;3.50;99.90;;;;;;5048028;28;20029;-41
2023/04/02 03:10:16;;;;;;;5.60;2.10;;;3.50;99.90;;;;;;5050127;28;20021;-41
2023/04/02 03:12:41;;;;;;;8.63;1.88;;;3.40;99.90;;;;;;5043777;28;20343;-41
2023/04/02 03:15:46;;;;;;;3.72;1.83;;;3.50;99.90;;;;;;5049399;28;20031;-40
2023/04/02 03:18:29;;;;;;;8.10;2.00;;;3.40;99.90;;;;;;5033331;28;20551;-41
2023/04/02 03:21:00;;;;;;;9.02;1.70;;;3.50;99.90;;;;;;5045634;28;20040;-40
2023/04/02 03:23:31;;;;;;;5.85;1.98;;;3.50;99.90;;;;;;5042731;28;20024;-40
2023/04/02 03:26:44;;;;;;;3.90;1.70;;;3.50;99.90;;;;;;5044106;28;20490;-40
2023/04/02 03:29:17;;;;;;;3.50;1.80;;;3.50;99.90;;;;;;4967825;28;20042;-40
2023/04/02 03:31:47;;;;;;;9.80;2.28;;;3.50;99.90;;;;;;5048424;28;20048;-40
2023/04/02 03:34:40;;;;;;;8.70;1.88;;;3.50;99.90;;;;;;5047868;28;20021;-40
2023/04/02 03:37:22;;;;;;;4.25;1.65;;;3.50;99.90;;;;;;5048641;28;20514;-40
2023/04/02 03:40:15;;;;;;;7.50;2.25;;;3.50;99.90;;;;;;5043849;28;20119;-40
2023/04/02 03:42:49;;;;;;;5.18;1.83;;;3.50;99.90;;;;;;5042892;28;20028;-40
2023/04/02 03:45:27;;;;;;;3.97;1.50;;;3.50;99.90;;;;;;5049279;28;20378;-40
2023/04/02 03:48:03;;;;;;;5.05;1.90;;;3.60;99.90;;;;;;5043134;28;20051;-40
2023/04/02 03:50:48;;;;;;;4.57;1.60;;;3.50;99.90;;;;;;5041600;28;20025;-40
2023/04/02 03:53:14;;;;;;;6.20;1.70;;;3.60;99.90;;;;;;5044959;28;20028;-40
2023/04/02 03:55:41;;;;;;;2.63;1.63;;;3.60;99.90;;;;;;5042402;28;20440;-41
2023/04/02 04:01:16;;;;;;;6.70;1.60;;;3.60;99.90;;;;;;5042452;28;20087;-41
2023/04/02 04:03:49;;;;;;;4.35;2.08;;;3.50;99.90;;;;;;5042366;28;20500;-41
2023/04/02 04:06:27;;;;;;;6.95;1.60;;;3.60;99.90;;;;;;5048062;28;20013;-41
2023/04/02 04:09:23;;;;;;;5.78;1.33;;;3.60;99.90;;;;;;5047507;28;20028;-41
2023/04/02 04:11:51;;;;;;;6.03;2.03;;;3.60;99.90;;;;;;5038077;28;20025;-42
2023/04/02 04:14:29;;;;;;;4.70;2.03;;;3.60;99.90;;;;;;5039556;28;20037;-41
2023/04/02 04:17:15;;;;;;;4.70;1.65;;;3.60;99.90;;;;;;5039357;28;20461;-41
2023/04/02 04:19:54;;;;;;;7.10;2.22;;;3.50;99.90;;;;;;5029949;28;20017;-41
2023/04/02 04:22:31;;;;;;;6.10;2.55;;;3.50;99.90;;;;;;5048306;28;20021;-43
2023/04/02 04:25:03;;;;;;;5.40;1.80;;;3.50;99.90;;;;;;5048719;28;20025;-42
2023/04/02 04:27:35;;;;;;;5.90;2.53;;;3.50;99.90;;;;;;5048526;28;20486;-41
2023/04/02 04:30:17;;;;;;;7.05;2.63;;;3.50;99.90;;;;;;5048503;28;20518;-41
2023/04/02 04:32:56;;;;;;;5.43;1.95;;;3.60;99.90;;;;;;5042360;28;20009;-41
2023/04/02 04:35:36;;;;;;;4.65;1.85;;;3.50;99.90;;;;;;5048566;28;20100;-41
2023/04/02 04:38:31;;;;;;;4.53;1.88;;;3.50;99.90;;;;;;5047943;28;20017;-41
2023/04/02 04:41:02;;;;;;;4.15;2.05;;;3.60;99.90;;;;;;5048288;28;20017;-41
2023/04/02 04:43:39;;;;;;;6.28;1.75;;;3.50;99.90;;;;;;5048240;28;20040;-41
2023/04/02 04:46:18;;;;;;;8.45;2.63;;;3.60;99.90;;;;;;5048087;28;20017;-41
2023/04/02 04:48:57;;;;;;;4.40;1.90;;;3.60;99.90;;;;;;5041482;28;20052;-41
2023/04/02 04:51:36;;;;;;;4.60;1.80;;;3.60;99.90;;;;;;5048217;28;20021;-40
2023/04/02 04:54:01;;;;;;;5.95;1.90;;;3.60;99.90;;;;;;5047183;28;20044;-40
2023/04/02 04:56:29;;;;;;;10.85;2.03;;;3.60;99.90;;;;;;5047564;28;20029;-40
2023/04/02 04:59:04;;;;;;;7.90;1.48;;;3.60;99.90;;;;;;5048074;28;20068;-40
2023/04/02 05:01:50;;;;;;;4.40;1.90;;;3.50;99.90;;;;;;5047790;28;20014;-40
2023/04/02 05:04:20;;;;;;;6.97;1.83;;;3.60;99.90;;;;;;5047106;28;20495;-40
2023/04/02 05:07:03;;;;;;;5.28;1.83;;;3.60;99.90;;;;;;5047694;28;20052;-41
2023/04/02 05:09:50;;;;;;;7.05;1.92;;;3.60;99.90;;;;;;5048214;28;20060;-41
2023/04/02 05:12:29;;;;;;;5.57;2.20;;;3.60;99.90;;;;;;5048203;28;20446;-42
2023/04/02 05:15:22;;;;;;;4.50;1.70;;;3.60;99.90;;;;;;5047871;28;20633;-40
2023/04/02 05:17:54;;;;;;;2.15;1.50;;;3.70;99.90;;;;;;5048303;28;20100;-40
2023/04/02 05:20:31;;;;;;;4.32;2.03;;;3.70;99.90;;;;;;5052052;28;20040;-40
2023/04/02 05:23:04;;;;;;;4.60;1.55;;;3.70;99.90;;;;;;5052165;28;20494;-40
2023/04/02 05:25:31;;;;;;;3.22;1.45;;;3.70;99.90;;;;;;5052164;28;20017;-40
2023/04/02 05:27:57;;;;;;;5.53;2.05;;;3.60;99.90;;;;;;5051719;28;20028;-40
2023/04/02 05:30:23;;;;;;;7.03;1.80;;;3.70;99.90;;;;;;5051239;28;20025;-40
2023/04/02 05:33:00;;;;;;;3.95;1.98;;;3.70;99.90;;;;;;5051901;28;20056;-40
2023/04/02 05:35:32;;;;;;;6.57;1.95;;;3.70;99.90;;;;;;5050966;28;20017;-41
2023/04/02 05:38:00;;;;;;;4.68;2.00;;;3.70;99.90;;;;;;5051308;28;20028;-41
2023/04/02 05:40:43;;;;;;;7.82;2.00;;;3.70;99.90;;;;;;5051591;28;20029;-41
2023/04/02 05:43:12;;;;;;;6.30;2.90;;;3.70;99.90;;;;;;5051045;28;20051;-41
2023/04/02 05:45:40;;;;;;;8.75;2.13;;;3.70;99.90;;;;;;5051522;28;20029;-40
2023/04/02 05:48:29;;;;;;;7.40;2.63;;;3.70;99.90;;;;;;5051106;28;20545;-41
2023/04/02 05:50:57;;;;;;;5.18;1.80;;;3.80;99.90;;;;;;5051307;28;20025;-40
2023/04/02 05:53:38;;;;;;;7.47;1.95;;;3.90;99.90;;;;;;5051380;28;20024;-40
2023/04/02 05:56:14;;;;;;;5.70;1.77;;;3.80;99.90;;;;;;5045949;28;20071;-41
2023/04/02 05:58:43;;;;;;;4.00;1.98;;;3.90;99.90;;;;;;5051344;28;20020;-41
2023/04/02 06:01:19;;;;;;;6.85;1.50;;;3.90;99.90;;;;;;5051451;28;20025;-41
2023/04/02 06:03:51;;;;;;;4.05;1.95;;;3.90;99.90;;;;;;5051207;28;20061;-40
2023/04/02 06:06:20;;;;;;;7.70;1.60;;;3.90;99.90;;;;;;5048856;28;20013;-40
2023/04/02 06:09:04;;;;;;;3.47;2.17;;;3.90;99.90;;;;;;5050754;28;20017;-40
2023/04/02 06:11:40;;;;;;;3.97;1.58;;;3.90;99.90;;;;;;5051059;28;20013;-42
2023/04/02 06:14:14;;;;;;;7.13;2.28;;;3.90;99.90;;;;;;5050640;28;20079;-41
2023/04/02 06:16:41;;;;;;;5.28;2.40;;;3.90;99.90;;;;;;5050902;28;20024;-40
2023/04/02 06:19:15;;;;;;;3.85;1.95;;;3.90;99.90;;;;;;5050519;28;20533;-40
2023/04/02 06:21:45;;;;;;;6.20;1.92;;;3.90;99.90;;;;;;5050810;28;20017;-40
2023/04/02 06:24:14;;;;;;;3.22;2.00;;;3.90;99.90;;;;;;5050422;28;20126;-41
2023/04/02 06:26:48;;;;;;;5.20;1.95;;;4.00;99.90;;;;;;5050188;28;20016;-41
2023/04/02 06:29:26;;;;;;;4.68;1.92;;;4.10;99.90;;;;;;5050109;28;20017;-40
2023/04/02 06:31:58;;;;;;;5.95;2.25;;;4.10;99.90;;;;;;5049465;28;20042;-40
2023/04/02 06:34:25;;;;;;;7.28;2.00;;;4.10;99.90;;;;;;5049301;28;20024;-40
2023/04/02 06:36:57;;;;;;;4.65;1.77;;;4.10;99.90;;;;;;5050275;28;20108;-42
2023/04/02 06:39:25;;;;;;;3.03;1.73;;;4.20;99.90;;;;;;5049325;28;20079;-43
2023/04/02 06:42:03;;;;;;;6.50;2.10;;;4.20;99.90;;;;;;5050259;28;20463;-42
2023/04/02 06:44:33;;;;;;;4.95;1.95;;;4.20;99.90;;;;;;5049790;28;20039;-40
2023/04/02 06:47:16;;;;;;;5.28;1.90;;;4.30;99.90;;;;;;5049963;28;20036;-40
2023/04/02 06:49:50;;;;;;;3.75;1.80;;;4.30;99.90;;;;;;5050103;28;20125;-41
2023/04/02 06:52:38;;;;;;;8.65;2.03;;;4.40;99.90;;;;;;5049857;28;20075;-41
2023/04/02 06:55:25;;;;;;;4.20;2.22;;;4.40;99.90;;;;;;5050355;28;20056;-40
2023/04/02 06:57:50;;;;;;;6.40;2.75;;;4.50;99.90;;;;;;5049815;28;20048;-40
2023/04/02 07:00:43;;;;;;;4.65;2.45;;;4.40;99.90;;;;;;5049213;28;20049;-40
2023/04/02 07:03:26;;;;;;;5.63;2.22;;;4.40;99.90;;;;;;5045425;28;20392;-41
2023/04/02 07:05:52;;;;;;;4.40;1.77;;;4.40;99.90;;;;;;5049549;28;20028;-41
2023/04/02 07:08:17;;;;;;;6.28;1.88;;;4.50;99.90;;;;;;5049309;28;20028;-42
2023/04/02 07:10:43;;;;;;;4.70;1.90;;;4.50;99.90;;;;;;5048823;28;20027;-40
2023/04/02 07:13:17;;;;;;;5.80;2.17;;;4.50;99.90;;;;;;5049119;28;20029;-41
2023/04/02 07:15:49;;;;;;;5.80;2.47;;;4.40;99.90;;;;;;5049636;28;20535;-41
2023/04/02 07:18:26;;;;;;;3.65;1.95;;;4.50;99.90;;;;;;5049409;28;20601;-40
2023/04/02 07:20:52;;;;;;;4.47;1.80;;;4.50;99.90;;;;;;5049434;28;20025;-41
2023/04/02 07:23:19;;;;;;;3.85;1.77;;;4.50;99.90;;;;;;5049294;28;20033;-40
2023/04/02 07:25:46;;;;;;;6.57;2.33;;;4.50;99.90;;;;;;5049533;28;20009;-41
2023/04/02 07:28:13;;;;;;;5.00;2.08;;;4.40;99.90;;;;;;5048905;28;20044;-41
2023/04/02 07:30:39;;;;;;;8.43;2.17;;;4.40;99.90;;;;;;5049587;28;20021;-40
2023/04/02 07:33:05;;;;;;;6.53;2.40;;;4.50;99.90;;;;;;5049387;28;20118;-41
2023/04/02 07:35:30;;;;;;;5.15;2.45;;;4.40;99.90;;;;;;5049754;28;20020;-41
2023/04/02 07:37:56;;;;;;;4.55;2.10;;;4.50;99.90;;;;;;5048840;28;20036;-42
2023/04/02 07:40:23;;;;;;;3.80;1.60;;;4.40;99.90;;;;;;5049498;28;20028;-42
2023/04/02 07:42:49;;;;;;;5.47;2.10;;;4.40;99.90;;;;;;5048152;28;20103;-41
2023/04/02 07:45:15;;;;;;;3.35;1.58;;;4.50;99.90;;;;;;5049369;28;20020;-41
2023/04/02 07:47:41;;;;;;;3.78;1.70;;;4.50;99.90;;;;;;5048582;28;20025;-41
2023/04/02 07:50:07;;;;;;;3.47;1.90;;;4.50;99.90;;;;;;5049267;28;20032;-41
2023/04/02 07:52:37;;;;;;;7.05;3.03;;;4.50;99.90;;;;;;5048529;28;20264;-41
2023/04/02 07:55:03;;;;;;;3.70;1.67;;;4.60;99.90;;;;;;5049724;28;20037;-41
2023/04/02 07:57:28;;;;;;;8.13;2.38;;;4.60;99.90;;;;;;5048708;28;20038;-42
2023/04/02 07:59:55;;;;;;;7.95;2.13;;;4.70;99.90;;;;;;5049361;28;20425;-41
2023/04/02 08:02:21;;;;;;;5.10;1.98;;;4.70;99.90;;;;;;5048738;28;20020;-40
2023/04/02 08:04:48;;;;;;;4.53;1.75;;;4.70;99.90;;;;;;5048447;28;20029;-39
2023/04/02 08:07:14;;;;;;;6.60;2.17;;;4.80;99.90;;;;;;5048143;28;20044;-38
2023/04/02 08:09:39;;;;;;;6.55;2.05;;;4.80;99.90;;;;;;5048274;28;20060;-38
2023/04/02 08:12:05;;;;;;;4.18;1.90;;;4.90;99.90;;;;;;5049265;28;20024;-38
2023/04/02 08:14:31;;;;;;;5.03;1.95;;;4.80;99.90;;;;;;5047441;28;20103;-38
2023/04/02 08:16:56;;;;;;;4.95;2.00;;;4.80;99.90;;;;;;5045396;28;20029;-38
2023/04/02 08:19:22;;;;;;;5.65;1.98;;;4.70;99.90;;;;;;5047563;28;20032;-38
2023/04/02 08:21:50;;;;;;;8.27;2.78;;;4.70;99.90;;;;;;5047471;28;20028;-38
2023/04/02 08:24:18;;;;;;;2.28;1.60;;;4.70;99.90;;;;;;5048630;28;20036;-38
2023/04/02 08:26:45;;;;;;;4.57;1.77;;;4.70;99.90;;;;;;5048265;28;20013;-40
2023/04/02 08:29:10;;;;;;;4.72;1.60;;;4.70;99.90;;;;;;5048098;28;20534;-38
2023/04/02 08:31:36;;;;;;;4.03;1.73;;;4.70;99.90;;;;;;5048537;28;20029;-39
2023/04/02 08:34:02;;;;;;;4.30;1.90;;;4.70;99.90;;;;;;5048134;28;20398;-39
2023/04/02 08:36:36;;;;;;;9.27;1.95;;;4.70;99.90;;;;;;5047912;28;20486;-39
2023/04/02 08:39:04;;;;;;;6.20;1.92;;;4.80;99.90;;;;;;5046914;28;20064;-39
2023/04/02 08:41:36;;;;;;;5.05;1.80;;;4.90;99.90;;;;;;5048070;28;20021;-39
2023/04/02 08:44:16;;;;;;;3.55;1.88;;;4.80;99.90;;;;;;5048594;28;20036;-39
2023/04/02 08:46:48;;;;;;;6.03;2.38;;;4.90;99.90;;;;;;5048117;28;20021;-39
2023/04/02 08:49:17;;;;;;;4.30;2.13;;;4.90;99.90;;;;;;5046449;28;20149;-38
2023/04/02 08:51:44;;;;;;;6.68;2.20;;;5.00;99.90;;;;;;5048315;28;20029;-38
2023/04/02 08:54:29;;;;;;;5.55;2.50;;;5.00;99.90;;;;;;5047599;28;20083;-38
2023/04/02 08:57:01;;;;;;;5.43;1.73;;;5.00;99.90;;;;;;5048105;28;20021;-38
2023/04/02 08:59:35;;;;;;;4.65;1.58;;;5.10;99.90;;;;;;5045968;28;20065;-38
2023/04/02 09:02:26;;;;;;;3.05;1.60;;;5.20;99.90;;;;;;5048032;28;20063;-38
2023/04/02 09:04:52;;;;;;;4.30;1.77;;;5.30;99.90;;;;;;5047927;28;20103;-38
2023/04/02 09:07:17;;;;;;;6.95;1.95;;;5.40;99.90;;;;;;5047496;28;20159;-38
2023/04/02 09:09:47;;;;;;;4.15;1.80;;;5.40;99.90;;;;;;5046425;28;20016;-37
2023/04/02 09:12:33;;;;;;;2.92;1.67;;;5.30;99.90;;;;;;5047678;28;20428;-38
2023/04/02 09:15:17;;;;;;;6.55;1.60;;;5.50;99.90;;;;;;5048045;28;20025;-38
2023/04/02 09:17:43;;;;;;;1.40;1.30;;;5.60;99.90;;;;;;5038995;28;20490;-38
2023/04/02 09:20:22;;;;;;;4.47;1.83;;;5.60;99.90;;;;;;5045739;28;20063;-38
2023/04/02 09:22:50;;;;;;;4.18;1.60;;;5.70;99.90;;;;;;5048187;28;20521;-38
2023/04/02 09:25:33;;;;;;;4.40;1.67;;;5.90;99.90;;;;;;5047622;28;20455;-38
2023/04/02 09:28:03;;;;;;;4.38;1.52;;;5.90;99.90;;;;;;5047682;28;20044;-38
2023/04/02 09:30:40;;;;;;;6.85;1.88;;;5.90;99.90;;;;;;5047350;28;20065;-38
2023/04/02 09:33:06;;;;;;;4.18;2.30;;;5.90;99.90;;;;;;5047681;28;20060;-38
2023/04/02 09:35:36;;;;;;;3.45;1.50;;;5.90;99.90;;;;;;5048006;28;20604;-38
2023/04/02 09:38:31;;;;;;;4.10;1.52;;;5.80;99.90;;;;;;5047724;28;20025;-39
2023/04/02 09:40:57;;;;;;;5.22;2.03;;;5.80;99.90;;;;;;5047754;28;20052;-38
2023/04/02 09:43:35;;;;;;;5.20;1.70;;;5.90;99.90;;;;;;5047813;28;20029;-38
2023/04/02 09:46:19;;;;;;;4.30;1.92;;;6.00;99.90;;;;;;5046315;28;20268;-39
2023/04/02 09:48:51;;;;;;;3.47;2.03;;;6.10;99.90;;;;;;5047741;28;20025;-38
2023/04/02 09:51:20;;;;;;;3.30;1.42;;;6.10;99.90;;;;;;5047848;28;20028;-38
2023/04/02 09:54:00;;;;;;;5.18;2.20;;;6.30;99.90;;;;;;5047119;28;20013;-38
2023/04/02 09:56:26;;;;;;;4.53;1.63;;;6.40;99.90;;;;;;5045693;28;20052;-38
2023/04/02 09:59:12;;;;;;;3.38;1.50;;;6.50;99.90;;;;;;5047812;28;20068;-38
2023/04/02 10:01:40;;;;;;;6.60;1.38;;;6.70;99.90;;;;;;5047780;28;20433;-39
2023/04/02 10:04:35;;;;;;;3.88;2.03;;;6.80;99.90;;;;;;5047735;28;20021;-38
2023/04/02 10:07:01;;;;;;;4.43;2.15;;;6.70;99.90;;;;;;5051093;28;20062;-39
2023/04/02 10:09:30;;;;;;;4.10;1.90;;;6.90;99.90;;;;;;5051316;28;20490;-39
2023/04/02 10:11:57;;;;;;;7.93;2.17;;;6.90;99.90;;;;;;5051487;28;20028;-40
2023/04/02 10:14:47;;;;;;;4.03;2.00;;;6.90;99.90;;;;;;5051191;28;20068;-39
2023/04/02 10:17:20;;;;;;;6.63;2.77;;;7.10;99.90;;;;;;5050926;28;20021;-39
2023/04/02 10:19:51;;;;;;;8.65;2.00;;;7.10;99.90;;;;;;5051417;28;20039;-39
2023/04/02 10:22:20;;;;;;;;;;;7.20;99.90;;;;;;5051855;28;20493;-39
2023/04/02 10:24:47;;;;;;;3.92;2.50;;;7.30;99.90;;;;;;5051092;28;19909;-39
2023/04/02 10:27:33;;;;;;;4.88;1.70;;;7.30;99.90;;;;;;5050480;28;20068;-39
2023/04/02 10:30:19;;;;;;;4.65;2.20;;;7.40;99.90;;;;;;5051114;28;20021;-38
2023/04/02 10:32:50;;;;;;;4.18;1.98;;;7.50;99.90;;;;;;5049460;28;20013;-39
2023/04/02 10:35:39;;;;;;;5.72;1.80;;;7.60;99.90;;;;;;5050874;28;20103;-39
2023/04/02 10:38:05;;;;;;;4.90;1.67;;;7.50;99.90;;;;;;5051078;28;20492;-39
2023/04/02 10:40:53;;;;;;;4.07;1.65;;;7.60;99.90;;;;;;5051009;28;20493;-39
2023/04/02 10:43:38;;;;;;;7.25;2.05;;;7.70;99.90;;;;;;5050738;28;20048;-39
2023/04/02 10:46:09;;;;;;;6.75;2.58;;;7.90;99.90;;;;;;5050721;28;20029;-39
2023/04/02 10:49:04;;;;;;;4.95;1.60;;;7.90;99.90;;;;;;5050580;28;20036;-39
2023/04/02 10:51:49;;;;;;;4.57;1.55;;;7.90;99.90;;;;;;5050894;28;20032;-39
2023/04/02 10:54:31;;;;;;;4.35;1.70;;;7.90;98.20;;;;;;5049073;28;20075;-39
2023/04/02 10:57:12;;;;;;;3.15;1.45;;;9.40;99.70;;;;;;5050154;28;20029;-38
2023/04/02 10:59:46;;;;;;;3.30;1.50;;;11.70;95.20;;;;;;5050567;28;20087;-37
2023/04/02 11:02:43;;;;;;;4.25;1.83;;;14.30;89.70;;;;;;5050312;28;20017;-38
2023/04/02 11:05:28;;;;;;;4.53;1.60;;;16.40;78.00;;;;;;5050019;28;20029;-40
2023/04/02 11:08:20;;;;;;;4.55;2.05;;;18.30;70.50;;;;;;5049740;28;20013;-38
2023/04/02 11:11:08;;;;;;;3.38;1.73;;;20.00;59.70;;;;;;5048765;28;20423;-38
2023/04/02 11:13:58;;;;;;;4.63;1.52;;;19.90;59.30;;;;;;5050167;28;20071;-38
2023/04/02 11:16:24;;;;;;;3.93;1.60;;;18.80;59.20;;;;;;5049741;28;20433;-37
2023/04/02 11:19:24;;;;;;;6.95;1.55;;;17.70;59.10;;;;;;5049833;28;20029;-38
2023/04/02 11:21:55;;;;;;;3.22;1.30;;;15.80;61.00;;;;;;5022725;28;20040;-39
2023/04/02 11:24:33;;;;;;;3.20;2.03;;;14.60;66.30;;;;;;5048773;28;20087;-38
2023/04/02 11:27:10;;;;;;;2.20;1.50;;;13.80;67.40;;;;;;5059372;28;20591;-38
2023/04/02 11:29:52;;;;;;;4.65;1.95;;;12.70;70.10;;;;;;5049632;28;20021;-38
2023/04/02 11:32:21;;;;;;;6.60;2.25;;;11.80;73.10;;;;;;5049927;28;20043;-39
2023/04/02 11:34:46;;;;;;;3.80;1.40;;;11.00;75.60;;;;;;5049389;28;20021;-39
2023/04/02 11:37:30;;;;;;;6.60;1.88;;;10.50;75.40;;;;;;5049144;28;20434;-38
2023/04/02 11:39:58;;;;;;;6.18;2.40;;;11.00;76.10;;;;;;5049265;28;20028;-39
2023/04/02 11:42:35;;;;;;;5.78;1.98;;;12.70;73.50;;;;;;5049125;28;20394;-39
2023/04/02 11:48:12;;;;;;;3.45;2.00;;;15.80;68.10;;;;;;5048605;28;20079;-38
2023/04/02 11:50:38;;;;;;;3.28;1.75;;;15.60;64.50;;;;;;5045714;28;20505;-38
2023/04/02 11:53:31;;;;;;;3.65;1.60;;;15.00;67.00;;;;;;5049153;28;20025;-38
2023/04/02 11:55:57;;;;;;;5.05;1.50;;;14.20;66.80;;;;;;5048712;28;20390;-38
2023/04/02 11:58:49;;;;;;;2.50;1.20;;;14.60;69.10;;;;;;5042948;28;20021;-38
2023/04/02 12:01:42;;;;;;;1.98;1.20;;;14.00;69.30;;;;;;5043604;28;20021;-38
2023/04/02 12:04:42;;;;;;;4.65;1.42;;;13.50;67.60;;;;;;5044148;28;20497;-38
2023/04/02 12:07:25;;;;;;;2.53;1.10;;;14.10;68.30;;;;;;5048538;28;20021;-38
2023/04/02 12:10:00;;;;;;;5.15;1.55;;;15.30;68.50;;;;;;5048798;28;20016;-38
2023/04/02 12:12:31;;;;;;;2.05;1.10;;;16.60;63.30;;;;;;5048591;28;20075;-39
2023/04/02 12:14:58;;;;;;;6.25;1.33;;;17.50;62.20;;;;;;5049061;28;20104;-39
2023/04/02 12:17:36;;;;;;;4.25;1.52;;;17.30;60.80;;;;;;5048226;28;20589;-38
2023/04/02 12:20:03;;;;;;;4.25;1.30;;;16.30;62.00;;;;;;5064209;28;20025;-38
2023/04/02 12:22:31;;;;;;;3.35;1.27;;;15.30;62.50;;;;;;5048960;28;20398;-38
2023/04/02 12:25:21;;;;;;;3.90;1.60;;;14.00;63.90;;;;;;5049005;28;20025;-38
2023/04/02 12:27:47;;;;;;;4.70;1.73;;;12.80;67.40;;;;;;5047455;28;20094;-38
2023/04/02 12:30:17;;;;;;;5.90;2.40;;;12.90;69.30;;;;;;5030907;28;20534;-38
2023/04/02 12:32:42;;;;;;;4.17;1.80;;;13.90;69.10;;;;;;5048959;28;20024;-38
2023/04/02 12:35:31;;;;;;;4.25;2.22;;;14.50;68.00;;;;;;5047534;28;20526;-38
2023/04/02 12:37:56;;;;;;;4.63;1.13;;;14.50;68.80;;;;;;5048522;28;20028;-39
2023/04/02 12:40:22;;;;;;;4.78;1.50;;;14.60;66.40;;;;;;5048790;28;20504;-38
2023/04/02 12:42:48;;;;;;;4.32;1.00;;;13.70;66.40;;;;;;5048393;28;20537;-39
2023/04/02 12:45:22;;;;;;;2.08;1.10;;;13.40;69.00;;;;;;5048666;28;20384;-39
2023/04/02 12:47:48;;;;;;;2.80;0.98;;;12.80;70.40;;;;;;5048252;28;20066;-38
2023/04/02 12:50:15;;;;;;;3.42;1.27;;;12.30;71.70;;;;;;5048620;28;20021;-38
2023/04/02 12:52:46;;;;;;;2.15;1.50;;;12.10;72.20;;;;;;5048216;28;20352;-38
2023/04/02 12:55:18;;;;;;;3.10;0.98;;;11.70;72.30;;;;;;5049541;28;20025;-38
2023/04/02 12:57:48;;;;;;;2.30;1.33;;;11.70;74.70;;;;;;5057099;28;20024;-38
2023/04/02 13:00:20;;;;;;;3.37;1.10;;;11.40;73.20;;;;;;5047122;28;20036;-38
2023/04/02 13:02:49;;;;;;;4.40;1.95;;;11.20;72.20;;;;;;5048353;28;20025;-38
2023/04/02 13:05:35;;;;;;;5.60;1.50;;;11.80;74.90;;;;;;5048351;28;20029;-38
2023/04/02 13:08:02;;;;;;;2.58;1.50;;;12.50;74.90;;;;;;5048401;28;20271;-40
2023/04/02 13:10:27;;;;;;;4.63;1.65;;;12.60;71.90;;;;;;5046893;28;20021;-39
2023/04/02 13:13:01;;;;;;;5.85;1.60;;;12.70;72.40;;;;;;5048188;28;20139;-38
2023/04/02 13:15:30;;;;;;;3.88;1.40;;;12.70;70.20;;;;;;5048602;28;20402;-38
2023/04/02 13:18:20;;;;;;;4.10;1.00;;;13.10;76.20;;;;;;5047852;28;20674;-38
2023/04/02 13:20:56;;;;;;;3.17;1.15;;;13.30;72.80;;;;;;5048712;28;20019;-38
2023/04/02 13:23:27;;;;;;;5.32;1.35;;;12.50;70.80;;;;;;5052465;28;20535;-38
2023/04/02 13:25:53;;;;;;;3.00;1.70;;;12.10;71.20;;;;;;5047953;28;20198;-38
2023/04/02 13:28:20;;;;;;;6.15;2.42;;;12.10;71.50;;;;;;5046406;28;20095;-38
2023/04/02 13:30:45;;;;;;;3.30;1.45;;;12.50;71.50;;;;;;5048160;28;20027;-38
2023/04/02 13:33:14;;;;;;;4.43;1.75;;;13.00;72.20;;;;;;5047927;28;20444;-38
2023/04/02 13:35:40;;;;;;;4.57;2.08;;;13.00;70.00;;;;;;5047545;28;20036;-37
2023/04/02 13:38:07;;;;;;;5.55;1.90;;;12.70;69.20;;;;;;5048294;28;20402;-38
2023/04/02 13:40:33;;;;;;;3.42;1.55;;;12.40;71.90;;;;;;5051109;28;20083;-37